Time;durP1;ratioP1;P1;durP2;ratioP2;P2;SDS_P1;SDS_P2;PMS_P1;PMS_P2;Temp;Humidity;BMP_temperature;BMP_pressure;BME280_temperature;BME280_humidity;BME280_pressure;Samples;Min_cycle;Max_cycle;Signal;HPM_P1;HPM_P2
2023/02/12 00:01:03;;;;;;;48.10;43.10;;;;;;;;;;5106649;28;20411;-84
2023/02/12 00:03:30;;;;;;;54.50;45.80;;;;;;;;;;5106405;28;20429;-84
2023/02/12 00:06:00;;;;;;;55.67;45.10;;;;;;;;;;5106696;28;20440;-84
2023/02/12 00:08:27;;;;;;;53.50;41.23;;;;;;;;;;5107459;28;20404;-84
2023/02/12 00:10:56;;;;;;;44.73;40.10;;;;;;;;;;5107104;28;20790;-84
2023/02/12 00:13:23;;;;;;;46.33;40.70;;;;;;;;;;5106127;28;20482;-84
2023/02/12 00:15:50;;;;;;;47.80;42.60;;;;;;;;;;5105452;28;20519;-84
2023/02/12 00:18:17;;;;;;;46.77;41.10;;;;;;;;;;5106271;28;20479;-83
2023/02/12 00:20:44;;;;;;;52.90;43.67;;;;;;;;;;5106580;28;20444;-84
2023/02/12 00:23:12;;;;;;;50.80;45.33;;;;;;;;;;5105397;28;20423;-83
2023/02/12 00:25:41;;;;;;;51.63;44.83;;;;;;;;;;5105240;28;20522;-84
2023/02/12 00:28:10;;;;;;;50.47;43.13;;;;;;;;;;5106277;28;20425;-83
2023/02/12 00:30:37;;;;;;;46.10;40.80;;;;;;;;;;5106706;28;20456;-84
2023/02/12 00:33:04;;;;;;;48.63;42.17;;;;;;;;;;5105221;28;20460;-84
2023/02/12 00:35:31;;;;;;;50.40;42.00;;;;;;;;;;5105297;28;20501;-84
2023/02/12 00:37:58;;;;;;;47.27;42.23;;;;;;;;;;5105834;28;20476;-84
2023/02/12 00:40:25;;;;;;;48.03;41.30;;;;;;;;;;5106402;28;20449;-84
2023/02/12 00:42:52;;;;;;;48.00;41.33;;;;;;;;;;5106520;28;20474;-84
2023/02/12 00:45:20;;;;;;;50.13;43.00;;;;;;;;;;5104605;28;20481;-84
2023/02/12 00:47:47;;;;;;;46.80;41.70;;;;;;;;;;5105180;28;20834;-84
2023/02/12 00:50:15;;;;;;;47.87;42.07;;;;;;;;;;5105625;28;20452;-84
2023/02/12 00:52:42;;;;;;;47.27;42.20;;;;;;;;;;5105939;28;20453;-84
2023/02/12 00:55:09;;;;;;;49.87;42.93;;;;;;;;;;5105381;28;20478;-83
2023/02/12 00:57:36;;;;;;;47.33;42.43;;;;;;;;;;5105426;28;20546;-84
2023/02/12 01:00:03;;;;;;;47.63;42.53;;;;;;;;;;5105480;28;20407;-84
2023/02/12 01:02:31;;;;;;;47.30;42.27;;;;;;;;;;5104504;28;20438;-85
2023/02/12 01:04:58;;;;;;;45.63;40.67;;;;;;;;;;5105266;28;20476;-84
2023/02/12 01:07:25;;;;;;;49.47;42.27;;;;;;;;;;5104546;28;20563;-83
2023/02/12 01:09:52;;;;;;;51.20;44.90;;;;;;;;;;5105004;28;20415;-85
2023/02/12 01:12:19;;;;;;;46.83;40.67;;;;;;;;;;5105149;28;20522;-84
2023/02/12 01:14:46;;;;;;;50.23;43.93;;;;;;;;;;5106279;28;20476;-84
2023/02/12 01:17:13;;;;;;;47.13;41.37;;;;;;;;;;5105174;28;20525;-84
2023/02/12 01:19:41;;;;;;;45.67;40.00;;;;;;;;;;5106200;28;20416;-84
2023/02/12 01:22:08;;;;;;;47.93;42.87;;;;;;;;;;5105798;28;20419;-84
2023/02/12 01:24:35;;;;;;;47.27;41.80;;;;;;;;;;5105280;28;20529;-84
2023/02/12 01:27:02;;;;;;;49.87;43.90;;;;;;;;;;5105327;28;20451;-84
2023/02/12 01:29:29;;;;;;;50.37;42.20;;;;;;;;;;5105779;28;20473;-84
2023/02/12 01:31:56;;;;;;;48.33;43.43;;;;;;;;;;5105821;28;20453;-84
2023/02/12 01:34:23;;;;;;;47.30;42.30;;;;;;;;;;5104910;28;20435;-84
2023/02/12 01:36:52;;;;;;;47.30;42.20;;;;;;;;;;5104100;28;20862;-84
2023/02/12 01:39:19;;;;;;;52.83;43.27;;;;;;;;;;5105417;28;20502;-84
2023/02/12 01:41:46;;;;;;;47.00;42.00;;;;;;;;;;5105203;28;20419;-85
2023/02/12 01:44:15;;;;;;;47.97;41.97;;;;;;;;;;5105435;28;20913;-84
2023/02/12 01:46:42;;;;;;;45.33;40.43;;;;;;;;;;5103739;28;20998;-85
2023/02/12 01:49:12;;;;;;;46.23;41.03;;;;;;;;;;5104418;28;20456;-84
2023/02/12 01:51:40;;;;;;;47.60;40.67;;;;;;;;;;5104221;28;20475;-85
2023/02/12 01:54:11;;;;;;;49.43;43.20;;;;;;;;;;5105108;28;20868;-84
2023/02/12 01:56:38;;;;;;;48.33;42.27;;;;;;;;;;5103831;28;20873;-84
2023/02/12 01:59:05;;;;;;;47.40;42.20;;;;;;;;;;5104905;28;20934;-84
2023/02/12 02:01:33;;;;;;;47.07;42.10;;;;;;;;;;5105032;28;20475;-84
2023/02/12 02:04:02;;;;;;;50.77;41.70;;;;;;;;;;5104801;28;20478;-83
2023/02/12 02:06:32;;;;;;;48.27;42.07;;;;;;;;;;5104430;28;20435;-84
2023/02/12 02:08:59;;;;;;;48.07;42.83;;;;;;;;;;5103424;28;21067;-83
2023/02/12 02:17:00;;;;;;;52.43;41.53;;;;;;;;;;5104026;28;21019;-84
2023/02/12 02:19:36;;;;;;;45.50;40.80;;;;;;;;;;5104603;28;20448;-84
2023/02/12 02:22:14;;;;;;;46.53;41.50;;;;;;;;;;5104326;28;20466;-83
2023/02/12 02:24:53;;;;;;;46.87;40.83;;;;;;;;;;5104583;28;20458;-84
2023/02/12 02:27:27;;;;;;;49.67;44.30;;;;;;;;;;5105090;28;20447;-84
2023/02/12 02:30:15;;;;;;;48.63;42.50;;;;;;;;;;5105348;28;20431;-84
2023/02/12 02:32:48;;;;;;;49.20;43.17;;;;;;;;;;5104297;28;20433;-84
2023/02/12 02:35:20;;;;;;;53.73;44.27;;;;;;;;;;5105719;28;20472;-84
2023/02/12 02:37:49;;;;;;;49.20;43.00;;;;;;;;;;5105301;28;20468;-84
2023/02/12 02:40:18;;;;;;;54.20;45.17;;;;;;;;;;5104156;28;20419;-84
2023/02/12 02:42:49;;;;;;;50.13;44.10;;;;;;;;;;5103649;28;20808;-83
2023/02/12 02:45:18;;;;;;;50.43;43.33;;;;;;;;;;5103122;28;20488;-84
2023/02/12 02:47:50;;;;;;;48.77;43.43;;;;;;;;;;5104232;28;20449;-84
2023/02/12 02:50:19;;;;;;;50.97;42.90;;;;;;;;;;5108229;28;20419;-84
2023/02/12 02:52:48;;;;;;;51.40;44.90;;;;;;;;;;5106939;28;20436;-85
2023/02/12 02:55:16;;;;;;;54.20;45.57;;;;;;;;;;5108111;28;20479;-84
2023/02/12 02:57:46;;;;;;;58.37;48.50;;;;;;;;;;5108348;28;20443;-84
2023/02/12 03:00:15;;;;;;;53.93;44.37;;;;;;;;;;5108054;28;20455;-85
2023/02/12 03:02:44;;;;;;;56.20;46.30;;;;;;;;;;5107439;28;20846;-84
2023/02/12 03:05:16;;;;;;;59.03;45.93;;;;;;;;;;5107167;28;20530;-84
2023/02/12 03:07:46;;;;;;;58.27;47.40;;;;;;;;;;5107535;28;20445;-84
2023/02/12 03:10:16;;;;;;;63.77;47.67;;;;;;;;;;5107162;28;20429;-84
2023/02/12 03:12:44;;;;;;;59.17;46.90;;;;;;;;;;5106599;28;20445;-84
2023/02/12 03:15:13;;;;;;;55.10;45.83;;;;;;;;;;5107752;28;20461;-84
2023/02/12 03:17:42;;;;;;;62.33;47.03;;;;;;;;;;5107538;28;20480;-84
2023/02/12 03:20:12;;;;;;;61.20;47.07;;;;;;;;;;5107370;28;20506;-84
2023/02/12 03:22:43;;;;;;;69.73;47.83;;;;;;;;;;5107393;28;20442;-84
2023/02/12 03:25:13;;;;;;;72.50;50.80;;;;;;;;;;5107110;28;20510;-83
2023/02/12 03:27:43;;;;;;;60.27;47.50;;;;;;;;;;5107687;28;20518;-84
2023/02/12 03:30:10;;;;;;;74.03;50.13;;;;;;;;;;5108107;28;20502;-84
2023/02/12 03:32:42;;;;;;;67.70;48.40;;;;;;;;;;5108087;28;20449;-84
2023/02/12 03:35:13;;;;;;;54.50;45.40;;;;;;;;;;5106965;28;20473;-83
2023/02/12 03:37:44;;;;;;;73.17;48.27;;;;;;;;;;5105827;28;20499;-84
2023/02/12 03:40:15;;;;;;;64.40;50.23;;;;;;;;;;5107633;28;20449;-84
2023/02/12 03:42:46;;;;;;;64.80;48.20;;;;;;;;;;5107497;28;20458;-84
2023/02/12 03:45:18;;;;;;;66.17;48.13;;;;;;;;;;5106918;28;20890;-83
2023/02/12 03:47:49;;;;;;;75.97;50.40;;;;;;;;;;5106601;28;20839;-84
2023/02/12 03:50:18;;;;;;;77.93;50.63;;;;;;;;;;5107465;28;20442;-84
2023/02/12 03:52:47;;;;;;;75.93;52.00;;;;;;;;;;5106436;28;20433;-84
2023/02/12 03:55:14;;;;;;;70.93;50.83;;;;;;;;;;5105995;28;20477;-83
2023/02/12 03:57:43;;;;;;;82.37;49.97;;;;;;;;;;5106043;28;20517;-83
2023/02/12 04:00:12;;;;;;;69.43;51.10;;;;;;;;;;5105876;28;20447;-83
2023/02/12 04:02:38;;;;;;;70.40;50.80;;;;;;;;;;5105793;28;20457;-84
2023/02/12 04:05:06;;;;;;;76.87;52.60;;;;;;;;;;5106625;28;20472;-83
2023/02/12 04:07:33;;;;;;;78.27;54.63;;;;;;;;;;5106804;28;20527;-84
2023/02/12 04:10:01;;;;;;;71.23;50.30;;;;;;;;;;5106379;28;20490;-84
2023/02/12 04:12:35;;;;;;;73.90;52.00;;;;;;;;;;5105799;28;20444;-84
2023/02/12 04:15:07;;;;;;;75.50;51.80;;;;;;;;;;5105795;28;20513;-84
2023/02/12 04:17:40;;;;;;;75.47;50.83;;;;;;;;;;5106461;28;20522;-84
2023/02/12 04:20:11;;;;;;;88.73;54.47;;;;;;;;;;5106929;28;20461;-84
2023/02/12 04:22:44;;;;;;;68.57;51.87;;;;;;;;;;5105512;28;20437;-84
2023/02/12 04:25:17;;;;;;;70.63;53.23;;;;;;;;;;5104410;28;20504;-84
2023/02/12 04:27:48;;;;;;;76.10;52.80;;;;;;;;;;5104732;28;20452;-83
2023/02/12 04:30:19;;;;;;;69.97;51.80;;;;;;;;;;5105478;28;20475;-83
2023/02/12 04:32:48;;;;;;;66.00;49.60;;;;;;;;;;5104669;28;20479;-84
2023/02/12 04:35:19;;;;;;;74.60;53.73;;;;;;;;;;5105545;28;20530;-84
2023/02/12 04:37:49;;;;;;;78.30;55.20;;;;;;;;;;5105191;28;20451;-84
2023/02/12 04:40:19;;;;;;;71.67;52.17;;;;;;;;;;5105853;28;20534;-83
2023/02/12 04:42:47;;;;;;;74.70;52.33;;;;;;;;;;5105654;28;20493;-84
2023/02/12 04:45:16;;;;;;;87.20;51.57;;;;;;;;;;5105749;28;20464;-84
2023/02/12 04:47:43;;;;;;;92.57;53.33;;;;;;;;;;5105720;28;20489;-84
2023/02/12 04:50:10;;;;;;;82.33;53.90;;;;;;;;;;5104874;28;20445;-83
2023/02/12 04:52:37;;;;;;;78.40;54.17;;;;;;;;;;5104892;28;20419;-84
2023/02/12 04:55:04;;;;;;;89.77;57.60;;;;;;;;;;5104603;28;20439;-83
2023/02/12 04:57:33;;;;;;;80.80;54.83;;;;;;;;;;5105327;28;20461;-84
2023/02/12 05:00:00;;;;;;;84.47;55.63;;;;;;;;;;5105663;28;20440;-84
2023/02/12 05:02:27;;;;;;;90.80;56.27;;;;;;;;;;5105419;28;20449;-84
2023/02/12 05:04:54;;;;;;;84.40;55.30;;;;;;;;;;5105799;28;20491;-84
2023/02/12 05:07:21;;;;;;;84.83;55.70;;;;;;;;;;5104260;28;20432;-83
2023/02/12 05:09:48;;;;;;;83.77;54.90;;;;;;;;;;5105205;28;20447;-83
2023/02/12 05:12:15;;;;;;;82.33;57.10;;;;;;;;;;5104865;28;20508;-84
2023/02/12 05:14:43;;;;;;;82.13;58.00;;;;;;;;;;5104416;28;20439;-84
2023/02/12 05:17:10;;;;;;;85.80;57.63;;;;;;;;;;5104001;28;20469;-84
2023/02/12 05:19:37;;;;;;;71.73;53.63;;;;;;;;;;5104750;28;20436;-84
2023/02/12 05:22:04;;;;;;;79.37;54.60;;;;;;;;;;5104656;28;20453;-84
2023/02/12 05:24:31;;;;;;;85.10;55.63;;;;;;;;;;5104715;28;20485;-85
2023/02/12 05:26:58;;;;;;;88.43;55.00;;;;;;;;;;5105284;28;20478;-84
2023/02/12 05:29:25;;;;;;;75.67;53.63;;;;;;;;;;5105022;28;20440;-84
2023/02/12 05:31:54;;;;;;;75.17;53.30;;;;;;;;;;5103896;28;20471;-84
2023/02/12 05:34:21;;;;;;;82.03;52.63;;;;;;;;;;5104531;28;20453;-84
2023/02/12 05:36:48;;;;;;;78.70;54.00;;;;;;;;;;5103637;28;20436;-84
2023/02/12 05:39:15;;;;;;;80.83;54.20;;;;;;;;;;5104485;28;20484;-83
2023/02/12 05:41:42;;;;;;;84.13;54.07;;;;;;;;;;5102364;28;20452;-84
2023/02/12 05:44:10;;;;;;;95.23;57.17;;;;;;;;;;5103694;28;20427;-84
2023/02/12 05:46:38;;;;;;;95.77;56.30;;;;;;;;;;5104532;28;20530;-84
2023/02/12 05:49:06;;;;;;;88.47;56.50;;;;;;;;;;5104126;28;20505;-84
2023/02/12 05:51:33;;;;;;;89.87;55.70;;;;;;;;;;5103490;28;20513;-84
2023/02/12 05:54:02;;;;;;;89.93;57.57;;;;;;;;;;5104026;28;20465;-83
2023/02/12 05:56:30;;;;;;;85.23;55.10;;;;;;;;;;5102982;28;20549;-84
2023/02/12 05:58:59;;;;;;;88.10;53.17;;;;;;;;;;5103405;28;20865;-84
2023/02/12 06:01:27;;;;;;;83.03;54.93;;;;;;;;;;5103364;28;20464;-85
2023/02/12 06:03:54;;;;;;;83.87;53.13;;;;;;;;;;5103852;28;20455;-84
2023/02/12 06:06:23;;;;;;;73.10;52.90;;;;;;;;;;5103392;28;21030;-84
2023/02/12 06:08:50;;;;;;;92.13;55.00;;;;;;;;;;5103642;28;20448;-84
2023/02/12 06:11:18;;;;;;;83.00;54.40;;;;;;;;;;5104042;28;20425;-85
2023/02/12 06:13:45;;;;;;;75.93;54.47;;;;;;;;;;5104360;28;20504;-84
2023/02/12 06:16:17;;;;;;;92.10;54.30;;;;;;;;;;5102763;28;20585;-84
2023/02/12 06:18:44;;;;;;;91.87;58.20;;;;;;;;;;5103501;28;20432;-84
2023/02/12 06:21:11;;;;;;;88.13;55.40;;;;;;;;;;5104346;28;20827;-84
2023/02/12 06:23:40;;;;;;;72.90;53.42;;;;;;;;;;5108062;28;20434;-84
2023/02/12 06:26:08;;;;;;;86.53;54.00;;;;;;;;;;5110365;28;20217;-84
2023/02/12 06:28:35;;;;;;;79.93;53.10;;;;;;;;;;5110429;28;20411;-84
2023/02/12 06:31:02;;;;;;;75.67;53.27;;;;;;;;;;5109684;28;20463;-84
2023/02/12 06:33:29;;;;;;;86.43;51.70;;;;;;;;;;5109848;28;20512;-84
2023/02/12 06:35:56;;;;;;;75.33;50.73;;;;;;;;;;5110560;28;20444;-84
2023/02/12 06:38:23;;;;;;;69.00;49.67;;;;;;;;;;5110513;28;20899;-84
2023/02/12 06:40:51;;;;;;;72.50;51.20;;;;;;;;;;5110268;28;20452;-84
2023/02/12 06:43:19;;;;;;;82.77;52.03;;;;;;;;;;5109997;28;20763;-84
2023/02/12 06:45:46;;;;;;;74.13;53.17;;;;;;;;;;5107296;28;20474;-84
2023/02/12 06:48:13;;;;;;;88.10;53.33;;;;;;;;;;5110096;28;20436;-84
2023/02/12 06:50:40;;;;;;;71.83;45.20;;;;;;;;;;5110265;28;20486;-84
2023/02/12 06:53:07;;;;;;;78.00;51.40;;;;;;;;;;5109639;28;20448;-84
2023/02/12 06:55:35;;;;;;;71.83;48.87;;;;;;;;;;5109511;28;20451;-84
2023/02/12 06:58:03;;;;;;;74.07;52.43;;;;;;;;;;5109820;28;20502;-84
2023/02/12 07:00:30;;;;;;;66.83;45.50;;;;;;;;;;5110065;28;20441;-84
2023/02/12 07:02:57;;;;;;;70.67;47.87;;;;;;;;;;5109630;28;20444;-84
2023/02/12 07:05:24;;;;;;;70.60;49.40;;;;;;;;;;5109141;28;20505;-84
2023/02/12 07:07:51;;;;;;;73.53;49.80;;;;;;;;;;5110512;28;20455;-84
2023/02/12 07:10:18;;;;;;;65.87;50.30;;;;;;;;;;5109804;28;20452;-84
2023/02/12 07:12:46;;;;;;;74.53;50.43;;;;;;;;;;5109410;28;20449;-84
2023/02/12 07:15:14;;;;;;;73.17;51.13;;;;;;;;;;5109795;28;21033;-84
2023/02/12 07:17:41;;;;;;;69.23;50.97;;;;;;;;;;5110039;28;20965;-84
2023/02/12 07:20:09;;;;;;;67.80;51.60;;;;;;;;;;5107491;28;20444;-83
2023/02/12 07:22:36;;;;;;;76.90;57.80;;;;;;;;;;5103921;28;20451;-83
2023/02/12 07:25:03;;;;;;;64.70;51.80;;;;;;;;;;5103475;28;20891;-83
2023/02/12 07:27:30;;;;;;;86.03;63.40;;;;;;;;;;5111134;28;20474;-84
2023/02/12 07:29:57;;;;;;;77.07;55.27;;;;;;;;;;5111354;28;20407;-84
2023/02/12 07:32:26;;;;;;;79.03;58.73;;;;;;;;;;5109524;28;20496;-83
2023/02/12 07:34:53;;;;;;;77.07;51.80;;;;;;;;;;5101143;28;20541;-83
2023/02/12 07:37:21;;;;;;;70.10;51.43;;;;;;;;;;5100416;28;20856;-83
2023/02/12 07:39:57;;;;;;;72.13;51.93;;;;;;;;;;5104538;28;20483;-84
2023/02/12 07:42:24;;;;;;;72.80;50.47;;;;;;;;;;5106573;28;20428;-83
2023/02/12 07:44:51;;;;;;;73.27;56.53;;;;;;;;;;5107966;28;20494;-85
2023/02/12 07:47:18;;;;;;;76.23;53.20;;;;;;;;;;5101127;28;20848;-83
2023/02/12 07:49:47;;;;;;;71.67;54.33;;;;;;;;;;5100650;28;20437;-82
2023/02/12 07:52:14;;;;;;;73.07;52.27;;;;;;;;;;5100390;28;20803;-83
2023/02/12 07:54:41;;;;;;;72.67;55.47;;;;;;;;;;5100509;28;20482;-83
2023/02/12 07:57:08;;;;;;;79.50;51.27;;;;;;;;;;5100424;28;20452;-82
2023/02/12 07:59:35;;;;;;;75.27;51.17;;;;;;;;;;5100505;28;20991;-83
2023/02/12 08:02:02;;;;;;;71.07;52.93;;;;;;;;;;5099640;28;20513;-83
2023/02/12 08:04:29;;;;;;;80.23;54.40;;;;;;;;;;5100358;28;20441;-83
2023/02/12 08:06:57;;;;;;;67.70;51.97;;;;;;;;;;5100498;28;20403;-83
2023/02/12 08:09:25;;;;;;;68.10;52.47;;;;;;;;;;5100642;28;20452;-83
2023/02/12 08:11:52;;;;;;;71.07;49.40;;;;;;;;;;5099852;28;20468;-83
2023/02/12 08:14:21;;;;;;;75.30;53.50;;;;;;;;;;5100564;28;20427;-83
2023/02/12 08:16:48;;;;;;;69.60;49.93;;;;;;;;;;5098976;28;20533;-83
2023/02/12 08:19:16;;;;;;;80.20;53.60;;;;;;;;;;5099866;28;20502;-82
2023/02/12 08:21:43;;;;;;;70.67;51.47;;;;;;;;;;5099115;28;20444;-83
2023/02/12 08:24:11;;;;;;;74.67;53.57;;;;;;;;;;5099669;28;20525;-83
2023/02/12 08:26:39;;;;;;;67.90;53.23;;;;;;;;;;5099344;28;20473;-83
2023/02/12 08:29:08;;;;;;;86.63;52.13;;;;;;;;;;5098940;28;20469;-83
2023/02/12 08:31:35;;;;;;;77.10;53.03;;;;;;;;;;5099139;28;20447;-83
2023/02/12 08:34:02;;;;;;;67.67;50.77;;;;;;;;;;5100111;28;20454;-83
2023/02/12 08:36:30;;;;;;;72.30;52.50;;;;;;;;;;5099201;28;20476;-82
2023/02/12 08:38:58;;;;;;;82.00;53.90;;;;;;;;;;5099662;28;20884;-84
2023/02/12 08:41:27;;;;;;;76.47;52.93;;;;;;;;;;5099088;28;20524;-83
2023/02/12 08:43:56;;;;;;;80.77;53.10;;;;;;;;;;5100089;28;20498;-83
2023/02/12 08:46:24;;;;;;;69.00;50.67;;;;;;;;;;5098267;28;20466;-83
2023/02/12 08:48:53;;;;;;;90.33;59.80;;;;;;;;;;5099708;28;20444;-83
2023/02/12 08:51:20;;;;;;;82.70;54.37;;;;;;;;;;5099113;28;20430;-83
2023/02/12 08:53:48;;;;;;;84.00;54.40;;;;;;;;;;5098273;28;20441;-83
2023/02/12 08:56:16;;;;;;;81.73;57.30;;;;;;;;;;5098140;28;20851;-83
2023/02/12 08:58:45;;;;;;;74.30;53.60;;;;;;;;;;5098535;28;20580;-83
2023/02/12 09:01:14;;;;;;;70.93;51.40;;;;;;;;;;5097774;28;20881;-84
2023/02/12 09:03:41;;;;;;;76.53;53.23;;;;;;;;;;5098673;28;20468;-83
2023/02/12 09:06:08;;;;;;;78.63;57.30;;;;;;;;;;5096068;28;20506;-83
2023/02/12 09:08:36;;;;;;;73.93;52.10;;;;;;;;;;5098704;28;20802;-83
2023/02/12 09:11:05;;;;;;;72.93;52.33;;;;;;;;;;5097984;28;20461;-83
2023/02/12 09:13:32;;;;;;;78.77;54.37;;;;;;;;;;5097436;28;20451;-83
2023/02/12 09:16:01;;;;;;;79.10;56.17;;;;;;;;;;5098073;28;20966;-83
2023/02/12 09:18:28;;;;;;;66.87;50.60;;;;;;;;;;5098505;28;20403;-83
2023/02/12 09:20:55;;;;;;;78.77;55.00;;;;;;;;;;5098399;28;20412;-83
2023/02/12 09:23:22;;;;;;;73.20;50.57;;;;;;;;;;5097380;28;20513;-83
2023/02/12 09:25:49;;;;;;;74.47;54.43;;;;;;;;;;5099166;28;20511;-83
2023/02/12 09:28:16;;;;;;;72.90;53.23;;;;;;;;;;5099200;28;20444;-83
2023/02/12 09:30:42;;;;;;;71.67;52.13;;;;;;;;;;5097775;28;20978;-83
2023/02/12 09:33:11;;;;;;;65.53;52.20;;;;;;;;;;5098675;28;20764;-79
2023/02/12 09:35:39;;;;;;;62.40;51.70;;;;;;;;;;5096768;28;20862;-80
2023/02/12 09:38:06;;;;;;;77.97;55.30;;;;;;;;;;5097486;28;20513;-79
2023/02/12 09:40:36;;;;;;;66.90;52.30;;;;;;;;;;5097068;28;20484;-80
2023/02/12 09:43:05;;;;;;;64.27;51.67;;;;;;;;;;5096497;28;20448;-79
2023/02/12 09:45:35;;;;;;;63.83;51.30;;;;;;;;;;5098012;28;20471;-80
2023/02/12 09:48:08;;;;;;;65.43;53.47;;;;;;;;;;5099213;28;20476;-80
2023/02/12 09:50:43;;;;;;;60.33;50.43;;;;;;;;;;5098750;28;20798;-79
2023/02/12 09:53:13;;;;;;;58.30;47.27;;;;;;;;;;5097737;28;20417;-83
2023/02/12 09:55:40;;;;;;;60.93;50.93;;;;;;;;;;5099116;28;20472;-81
2023/02/12 09:58:11;;;;;;;56.10;49.40;;;;;;;;;;5098065;28;20469;-82
2023/02/12 10:00:39;;;;;;;291.13;164.80;;;;;;;;;;5099079;28;20508;-81
2023/02/12 10:03:12;;;;;;;63.73;56.97;;;;;;;;;;5101470;28;20456;-80
2023/02/12 10:05:42;;;;;;;62.87;47.13;;;;;;;;;;5101730;28;20453;-80
2023/02/12 10:08:15;;;;;;;53.77;44.03;;;;;;;;;;5101289;28;20479;-80
2023/02/12 10:10:51;;;;;;;60.30;50.50;;;;;;;;;;5100157;28;20488;-81
2023/02/12 10:13:23;;;;;;;60.57;51.57;;;;;;;;;;5098961;28;20423;-80
2023/02/12 10:15:53;;;;;;;53.43;43.47;;;;;;;;;;5098230;28;20986;-81
2023/02/12 10:18:33;;;;;;;54.60;41.70;;;;;;;;;;5099487;28;20784;-81
2023/02/12 10:21:07;;;;;;;47.83;40.10;;;;;;;;;;5098303;28;20439;-81
2023/02/12 10:23:43;;;;;;;48.00;40.93;;;;;;;;;;5087654;28;20456;-81
2023/02/12 10:26:13;;;;;;;46.80;41.80;;;;;;;;;;5077748;28;20518;-81
2023/02/12 10:28:41;;;;;;;45.37;37.33;;;;;;;;;;5078782;28;20411;-81
2023/02/12 10:31:12;;;;;;;44.33;39.17;;;;;;;;;;5079138;28;20458;-81
2023/02/12 10:33:41;;;;;;;42.50;38.10;;;;;;;;;;5091692;28;20521;-81
2023/02/12 10:36:15;;;;;;;37.13;33.23;;;;;;;;;;5098636;28;20538;-81
2023/02/12 10:38:44;;;;;;;35.73;32.23;;;;;;;;;;5098797;28;20429;-81
2023/02/12 10:41:14;;;;;;;35.63;32.20;;;;;;;;;;5099382;28;20415;-82
2023/02/12 10:43:42;;;;;;;41.10;33.57;;;;;;;;;;5099368;28;20421;-83
2023/02/12 10:46:13;;;;;;;42.17;37.70;;;;;;;;;;5098227;28;20522;-79
2023/02/12 10:48:41;;;;;;;38.13;33.67;;;;;;;;;;5098282;28;20420;-81
2023/02/12 10:51:16;;;;;;;37.97;34.07;;;;;;;;;;5086885;28;20974;-80
2023/02/12 10:53:44;;;;;;;37.70;33.63;;;;;;;;;;5076916;28;20457;-81
2023/02/12 10:56:17;;;;;;;37.43;33.40;;;;;;;;;;5076486;28;20539;-80
2023/02/12 10:58:51;;;;;;;38.43;34.67;;;;;;;;;;5077026;28;20935;-80
2023/02/12 11:01:20;;;;;;;38.63;34.43;;;;;;;;;;5076162;28;20429;-84
2023/02/12 11:03:47;;;;;;;39.33;35.03;;;;;;;;;;5077845;28;20450;-81
2023/02/12 11:06:17;;;;;;;39.73;35.70;;;;;;;;;;5077088;28;20456;-80
2023/02/12 11:08:45;;;;;;;36.50;32.90;;;;;;;;;;5078589;28;20503;-80
2023/02/12 11:11:12;;;;;;;40.10;33.23;;;;;;;;;;5081547;28;20415;-81
2023/02/12 11:13:40;;;;;;;38.40;34.80;;;;;;;;;;5081375;28;20466;-81
2023/02/12 11:16:07;;;;;;;37.60;33.70;;;;;;;;;;5080109;28;20534;-80
2023/02/12 11:18:36;;;;;;;36.37;32.97;;;;;;;;;;5081440;28;20428;-80
2023/02/12 11:21:04;;;;;;;36.13;32.57;;;;;;;;;;5081666;28;20456;-81
2023/02/12 11:23:33;;;;;;;34.33;31.33;;;;;;;;;;5081370;28;20506;-81
2023/02/12 11:26:02;;;;;;;38.03;32.50;;;;;;;;;;5082339;28;20440;-81
2023/02/12 11:28:29;;;;;;;34.63;30.93;;;;;;;;;;5081948;28;20491;-80
2023/02/12 11:30:57;;;;;;;30.90;28.27;;;;;;;;;;5082463;28;20832;-81
2023/02/12 11:33:29;;;;;;;32.50;29.50;;;;;;;;;;5081264;28;20415;-80
2023/02/12 11:35:57;;;;;;;32.90;29.93;;;;;;;;;;5081897;28;20436;-81
2023/02/12 11:38:26;;;;;;;31.90;28.90;;;;;;;;;;5081830;28;20467;-81
2023/02/12 11:40:57;;;;;;;32.17;28.90;;;;;;;;;;5099042;28;20455;-81
2023/02/12 11:43:25;;;;;;;32.77;29.53;;;;;;;;;;5101634;28;20408;-81
2023/02/12 11:45:55;;;;;;;32.97;29.90;;;;;;;;;;5082215;28;20436;-81
2023/02/12 11:48:24;;;;;;;33.00;30.00;;;;;;;;;;5081785;28;20447;-81
2023/02/12 11:50:52;;;;;;;31.30;28.70;;;;;;;;;;5081392;28;20474;-81
2023/02/12 11:53:22;;;;;;;31.27;28.23;;;;;;;;;;5082016;28;20438;-81
2023/02/12 11:55:58;;;;;;;32.33;29.33;;;;;;;;;;5093311;28;20514;-80
2023/02/12 11:58:26;;;;;;;33.00;29.80;;;;;;;;;;5095855;28;20445;-81
2023/02/12 12:00:56;;;;;;;33.80;30.67;;;;;;;;;;5091841;28;20485;-81
2023/02/12 12:03:25;;;;;;;31.83;29.07;;;;;;;;;;5087551;28;20445;-81
2023/02/12 12:05:53;;;;;;;32.57;29.60;;;;;;;;;;5096067;28;20478;-81
2023/02/12 12:08:24;;;;;;;32.70;29.50;;;;;;;;;;5094230;28;20441;-82
2023/02/12 12:10:55;;;;;;;32.70;29.50;;;;;;;;;;5082498;28;20479;-82
2023/02/12 12:13:28;;;;;;;30.70;27.90;;;;;;;;;;5081252;28;20430;-82
2023/02/12 12:21:37;;;;;;;31.57;28.77;;;;;;;;;;5079581;28;20469;-81
2023/02/12 12:24:05;;;;;;;30.93;28.23;;;;;;;;;;5081839;28;20488;-81
2023/02/12 12:26:34;;;;;;;30.43;27.77;;;;;;;;;;5081190;28;20470;-82
2023/02/12 12:29:06;;;;;;;30.00;27.43;;;;;;;;;;5082006;28;20450;-82
2023/02/12 12:31:35;;;;;;;31.57;28.83;;;;;;;;;;5080360;28;20465;-82
2023/02/12 12:34:06;;;;;;;33.30;30.17;;;;;;;;;;5081689;28;20434;-82
2023/02/12 12:36:52;;;;;;;31.73;29.13;;;;;;;;;;5081369;28;20466;-82
2023/02/12 12:39:26;;;;;;;30.77;27.97;;;;;;;;;;5081390;28;20800;-82
2023/02/12 12:41:58;;;;;;;29.60;27.13;;;;;;;;;;5079649;28;20458;-84
2023/02/12 12:44:34;;;;;;;27.40;25.20;;;;;;;;;;5081622;28;20422;-84
2023/02/12 12:47:10;;;;;;;27.80;25.67;;;;;;;;;;5081168;28;20399;-83
2023/02/12 12:49:55;;;;;;;24.67;22.90;;;;;;;;;;5080480;28;20430;-83
2023/02/12 12:52:32;;;;;;;28.00;25.77;;;;;;;;;;5080804;28;20420;-83
2023/02/12 12:55:16;;;;;;;26.50;24.47;;;;;;;;;;5080514;28;21068;-83
2023/02/12 12:57:47;;;;;;;27.07;24.97;;;;;;;;;;5081065;28;20435;-83
2023/02/12 13:00:21;;;;;;;27.83;25.63;;;;;;;;;;5079835;28;20466;-83
2023/02/12 13:03:02;;;;;;;27.07;24.87;;;;;;;;;;5079591;28;20507;-83
2023/02/12 13:05:56;;;;;;;25.57;23.93;;;;;;;;;;5080059;28;20505;-83
2023/02/12 13:08:31;;;;;;;25.27;23.07;;;;;;;;;;5033790;28;20556;-83
2023/02/12 13:11:00;;;;;;;27.37;25.30;;;;;;;;;;5080407;28;20416;-83
2023/02/12 13:13:31;;;;;;;25.53;23.53;;;;;;;;;;5080423;28;20453;-82
2023/02/12 13:16:05;;;;;;;26.10;24.13;;;;;;;;;;5079464;28;20486;-84
2023/02/12 13:18:38;;;;;;;25.80;24.00;;;;;;;;;;5080303;28;20426;-83
2023/02/12 13:21:12;;;;;;;26.90;24.93;;;;;;;;;;5081311;28;20501;-83
2023/02/12 13:23:43;;;;;;;27.43;25.33;;;;;;;;;;5080410;28;20412;-84
2023/02/12 13:26:13;;;;;;;26.53;24.63;;;;;;;;;;5080089;28;20477;-84
2023/02/12 13:28:42;;;;;;;26.27;24.30;;;;;;;;;;5080691;28;20440;-83
2023/02/12 13:31:14;;;;;;;25.00;23.20;;;;;;;;;;5080836;28;20446;-83
2023/02/12 13:33:42;;;;;;;26.70;24.50;;;;;;;;;;5079525;28;20430;-83
2023/02/12 13:36:11;;;;;;;25.30;23.50;;;;;;;;;;5079502;28;20453;-82
2023/02/12 13:38:39;;;;;;;25.50;23.57;;;;;;;;;;5080184;28;20479;-83
2023/02/12 13:41:08;;;;;;;23.83;22.13;;;;;;;;;;5080114;28;20537;-83
2023/02/12 13:43:40;;;;;;;23.50;21.93;;;;;;;;;;5079357;28;20439;-83
2023/02/12 13:46:10;;;;;;;24.70;23.00;;;;;;;;;;5079535;28;20450;-84
2023/02/12 13:48:47;;;;;;;24.20;22.70;;;;;;;;;;5080361;28;20469;-83
2023/02/12 13:51:17;;;;;;;24.17;22.60;;;;;;;;;;5078476;28;20401;-80
2023/02/12 13:53:54;;;;;;;23.50;22.00;;;;;;;;;;5077473;28;20461;-81
2023/02/12 13:56:29;;;;;;;23.33;21.63;;;;;;;;;;5075586;28;20491;-82
2023/02/12 13:58:59;;;;;;;23.50;22.00;;;;;;;;;;5078242;28;20425;-80
2023/02/12 14:01:45;;;;;;;22.90;21.30;;;;;;;;;;5076652;28;20819;-81
2023/02/12 14:04:36;;;;;;;23.27;21.77;;;;;;;;;;5077343;28;20495;-80
2023/02/12 14:07:06;;;;;;;24.07;22.37;;;;;;;;;;5056923;28;20435;-80
2023/02/12 14:09:36;;;;;;;22.17;20.77;;;;;;;;;;5078092;28;20487;-80
2023/02/12 14:12:05;;;;;;;23.07;21.67;;;;;;;;;;5076718;28;20427;-82
2023/02/12 14:14:34;;;;;;;24.30;22.70;;;;;;;;;;5078328;28;20499;-80
2023/02/12 14:17:16;;;;;;;22.80;21.40;;;;;;;;;;5078897;28;20798;-81
2023/02/12 14:19:55;;;;;;;25.03;23.23;;;;;;;;;;5079002;28;20846;-82
2023/02/12 14:22:40;;;;;;;24.00;22.50;;;;;;;;;;5078592;28;20457;-80
2023/02/12 14:25:21;;;;;;;23.93;22.40;;;;;;;;;;5078198;28;20457;-81
2023/02/12 14:27:50;;;;;;;23.37;21.80;;;;;;;;;;5078343;28;20433;-82
2023/02/12 14:30:24;;;;;;;22.47;21.07;;;;;;;;;;5077863;28;20417;-79
2023/02/12 14:33:15;;;;;;;23.73;22.03;;;;;;;;;;5076903;28;20461;-81
2023/02/12 14:35:43;;;;;;;24.20;22.47;;;;;;;;;;5076816;28;20983;-81
2023/02/12 14:38:28;;;;;;;25.37;23.27;;;;;;;;;;5076586;28;20506;-81
2023/02/12 14:41:32;;;;;;;22.90;21.43;;;;;;;;;;5075196;28;20503;-80